Time;durP1;ratioP1;P1;durP2;ratioP2;P2;SDS_P1;SDS_P2;PMS_P1;PMS_P2;Temp;Humidity;BMP_temperature;BMP_pressure;BME280_temperature;BME280_humidity;BME280_pressure;Samples;Min_cycle;Max_cycle;Signal;HPM_P1;HPM_P2
2021/05/29 00:00:22;;;;;;;8.43;4.23;;;;;;;16.75;71.79;100115.62;126222;1099;104133;-77
2021/05/29 00:03:11;;;;;;;7.63;4.00;;;;;;;16.75;71.79;100115.62;126226;1099;104757;-76
2021/05/29 00:05:41;;;;;;;5.47;3.83;;;;;;;16.75;72.10;100123.56;126298;1099;104136;-77
2021/05/29 00:08:11;;;;;;;12.77;4.20;;;;;;;16.75;72.19;100126.22;126299;1098;104666;-77
2021/05/29 00:10:44;;;;;;;4.87;3.60;;;;;;;16.75;71.78;100124.47;126281;1099;104162;-76
2021/05/29 00:13:14;;;;;;;7.93;4.13;;;;;;;16.76;71.60;100122.70;126294;1099;104188;-77
2021/05/29 00:15:43;;;;;;;6.87;4.10;;;;;;;16.76;71.96;100133.30;126270;1099;104399;-76
2021/05/29 00:18:13;;;;;;;7.10;3.75;;;;;;;16.75;72.19;100126.22;126216;1099;104166;-77
2021/05/29 00:20:43;;;;;;;7.63;4.00;;;;;;;16.76;71.91;100128.00;126238;1099;104150;-77
2021/05/29 00:23:13;;;;;;;7.37;3.87;;;;;;;16.77;71.55;100128.00;126307;1099;104159;-78
2021/05/29 00:25:44;;;;;;;9.43;4.00;;;;;;;16.78;72.14;100136.83;126302;1099;104248;-77
2021/05/29 00:28:16;;;;;;;6.87;4.03;;;;;;;16.80;72.25;100135.09;126300;1099;104969;-78
2021/05/29 00:30:47;;;;;;;8.97;4.20;;;;;;;16.77;71.93;100135.95;126189;1099;104171;-77
2021/05/29 00:33:16;;;;;;;7.97;4.27;;;;;;;16.77;72.07;100133.30;126278;1099;104249;-77
2021/05/29 00:35:45;;;;;;;9.07;4.50;;;;;;;16.76;72.12;100139.47;126306;1099;104213;-77
2021/05/29 00:38:14;;;;;;;7.90;4.20;;;;;;;16.77;72.24;100135.08;126305;1099;104191;-77
2021/05/29 00:40:43;;;;;;;7.20;4.20;;;;;;;16.77;72.44;100133.30;126218;1099;104197;-77
2021/05/29 00:43:12;;;;;;;7.07;3.77;;;;;;;16.78;72.10;100135.09;126274;1099;104178;-77
2021/05/29 00:45:42;;;;;;;7.23;3.70;;;;;;;16.82;72.37;100133.33;126309;1099;104137;-77
2021/05/29 00:48:11;;;;;;;8.97;3.87;;;;;;;16.84;71.88;100134.20;126322;1099;104573;-77
2021/05/29 00:50:48;;;;;;;8.00;4.30;;;;;;;16.88;71.85;100131.61;126285;1099;104238;-77
2021/05/29 00:53:19;;;;;;;7.00;3.97;;;;;;;16.89;72.01;100130.74;126323;1098;108235;-77
2021/05/29 00:55:48;;;;;;;7.97;3.90;;;;;;;16.91;71.98;100124.55;126288;1099;104245;-77
2021/05/29 00:58:20;;;;;;;6.77;3.97;;;;;;;16.92;72.05;100127.20;126293;1099;104175;-78
2021/05/29 01:00:50;;;;;;;10.70;3.83;;;;;;;16.95;72.57;100123.69;126302;1098;104255;-77
2021/05/29 01:03:20;;;;;;;9.90;4.03;;;;;;;16.97;72.08;100127.22;126248;1099;104238;-77
2021/05/29 01:05:49;;;;;;;8.67;4.30;;;;;;;16.96;71.92;100120.17;126279;1099;104242;-77
2021/05/29 01:08:18;;;;;;;9.33;4.40;;;;;;;16.97;72.38;100122.82;126270;1099;104169;-78
2021/05/29 01:10:48;;;;;;;5.77;3.77;;;;;;;16.97;72.10;100121.91;126303;1099;104133;-77
2021/05/29 01:13:20;;;;;;;8.73;4.00;;;;;;;16.94;71.93;100127.20;126265;1099;104143;-77
2021/05/29 01:15:50;;;;;;;9.93;4.30;;;;;;;16.94;71.96;100124.55;126279;1099;104175;-76
2021/05/29 01:18:19;;;;;;;8.50;4.27;;;;;;;16.93;71.97;100115.73;126281;1099;104204;-77
2021/05/29 01:20:49;;;;;;;7.20;3.90;;;;;;;16.93;72.08;100120.16;126271;1099;104211;-76
2021/05/29 01:23:18;;;;;;;6.37;3.73;;;;;;;16.91;72.08;100114.84;126238;1099;104210;-76
2021/05/29 01:25:48;;;;;;;6.43;4.07;;;;;;;16.89;72.03;100105.98;126316;1099;104137;-76
2021/05/29 01:28:21;;;;;;;5.90;3.67;;;;;;;16.88;72.16;100109.53;126274;1099;104156;-77
2021/05/29 01:30:52;;;;;;;6.83;4.00;;;;;;;16.86;72.00;100109.53;126311;1099;104166;-78
2021/05/29 01:33:24;;;;;;;7.83;4.30;;;;;;;16.85;71.99;100102.42;126279;1099;104724;-77
2021/05/29 01:35:59;;;;;;;7.97;3.57;;;;;;;16.84;72.74;100102.41;126287;1099;104197;-78
2021/05/29 01:38:29;;;;;;;8.23;4.10;;;;;;;16.84;72.23;100103.31;126335;1099;104149;-77
2021/05/29 01:41:02;;;;;;;12.33;4.20;;;;;;;16.83;72.05;100103.31;126281;1099;104142;-78
2021/05/29 01:43:34;;;;;;;10.18;4.03;;;;;;;16.83;72.19;100103.31;126219;1099;105247;-76
2021/05/29 01:46:04;;;;;;;9.90;4.03;;;;;;;16.80;72.58;100104.17;126291;1099;104255;-77
2021/05/29 01:48:38;;;;;;;7.93;3.83;;;;;;;16.80;72.43;100100.65;126281;1099;104246;-78
2021/05/29 01:51:09;;;;;;;6.60;3.90;;;;;;;16.78;72.83;100100.64;126303;1099;104146;-76
2021/05/29 01:53:39;;;;;;;5.07;3.87;;;;;;;16.77;72.16;100105.94;126257;1099;104165;-77
2021/05/29 01:56:10;;;;;;;5.93;4.00;;;;;;;16.76;72.50;100093.55;126246;1099;104139;-77
2021/05/29 01:58:42;;;;;;;7.27;4.03;;;;;;;16.75;72.33;100099.72;126315;1099;104165;-77
2021/05/29 02:01:13;;;;;;;7.70;3.90;;;;;;;16.76;72.79;100098.85;126307;1099;104165;-76
2021/05/29 02:03:44;;;;;;;7.90;4.00;;;;;;;16.73;72.87;100097.06;126290;1099;104216;-76
2021/05/29 02:06:15;;;;;;;7.43;3.83;;;;;;;16.73;72.46;100102.36;126225;1099;104223;-77
2021/05/29 02:08:44;;;;;;;7.10;3.90;;;;;;;16.69;72.40;100097.95;126257;1099;104165;-78
2021/05/29 02:11:13;;;;;;;9.33;4.17;;;;;;;16.69;72.42;100109.42;126238;1099;104181;-77
2021/05/29 02:13:43;;;;;;;7.70;4.03;;;;;;;16.67;72.87;100112.94;126229;1098;104188;-77
2021/05/29 02:16:13;;;;;;;6.93;3.83;;;;;;;16.67;72.89;100110.28;126298;1099;104698;-78
2021/05/29 02:18:43;;;;;;;8.50;4.00;;;;;;;16.67;72.79;100107.63;126259;1099;104274;-77
2021/05/29 02:21:16;;;;;;;7.53;4.13;;;;;;;16.63;72.95;100104.09;126270;1099;104146;-76
2021/05/29 02:23:48;;;;;;;7.30;4.00;;;;;;;16.63;73.08;100105.88;126283;1099;104153;-77
2021/05/29 02:26:20;;;;;;;11.60;3.97;;;;;;;16.62;72.86;100101.44;126297;1099;104124;-76
2021/05/29 02:28:54;;;;;;;8.70;4.30;;;;;;;16.60;72.47;100103.20;126301;1098;104201;-77
2021/05/29 02:31:24;;;;;;;7.30;4.20;;;;;;;16.57;72.97;100105.84;125335;1099;104240;-77
2021/05/29 02:33:53;;;;;;;11.90;3.80;;;;;;;16.57;73.10;100101.42;126220;1099;104172;-77
2021/05/29 02:36:23;;;;;;;7.40;4.07;;;;;;;16.57;73.08;100105.84;126301;1099;104242;-78
2021/05/29 02:38:54;;;;;;;10.90;4.20;;;;;;;16.56;72.99;100104.94;126221;1099;104206;-77
2021/05/29 02:41:23;;;;;;;10.03;4.10;;;;;;;16.51;73.08;100107.56;126274;1099;104144;-78
2021/05/29 02:43:52;;;;;;;7.10;4.07;;;;;;;16.52;72.92;100109.34;126271;1099;105776;-77
2021/05/29 02:46:22;;;;;;;7.07;3.87;;;;;;;16.51;72.84;100115.50;126258;1099;104152;-77
2021/05/29 02:48:51;;;;;;;7.47;4.03;;;;;;;16.49;73.12;100119.92;126281;1099;104210;-77
2021/05/29 02:51:20;;;;;;;5.93;3.87;;;;;;;16.47;72.92;100126.07;126259;1099;104143;-77
2021/05/29 02:53:49;;;;;;;6.87;3.70;;;;;;;16.44;73.03;100112.81;126262;1099;104159;-76
2021/05/29 02:56:18;;;;;;;8.07;4.30;;;;;;;16.40;72.34;100111.92;126299;1099;104159;-77
2021/05/29 02:58:48;;;;;;;9.30;4.27;;;;;;;16.42;72.77;100117.22;126261;1099;104163;-77
2021/05/29 03:01:17;;;;;;;7.97;3.60;;;;;;;16.40;73.13;100117.22;125382;1099;104175;-76
2021/05/29 03:03:46;;;;;;;10.37;5.13;;;;;;;16.40;73.06;100111.92;126227;1099;104265;-75
2021/05/29 03:06:15;;;;;;;9.00;4.13;;;;;;;16.43;72.48;100119.88;126321;1098;104251;-77
2021/05/29 03:08:44;;;;;;;7.03;4.10;;;;;;;16.47;73.18;100118.13;126332;1099;104175;-76
2021/05/29 03:11:14;;;;;;;6.40;3.83;;;;;;;16.47;72.33;100121.69;126235;1098;105220;-78
2021/05/29 03:13:43;;;;;;;4.73;3.80;;;;;;;16.44;72.22;100121.66;126257;1098;104149;-77
2021/05/29 03:16:13;;;;;;;9.20;4.13;;;;;;;16.39;72.64;100128.67;126292;1099;104142;-77
2021/05/29 03:18:42;;;;;;;8.07;4.60;;;;;;;16.39;72.90;100125.16;126272;1099;104287;-77
2021/05/29 03:21:12;;;;;;;7.47;4.30;;;;;;;16.41;72.80;100116.35;126263;1099;104188;-77
2021/05/29 03:23:43;;;;;;;12.30;4.80;;;;;;;16.40;72.25;100119.86;126229;1099;104163;-77
2021/05/29 03:26:12;;;;;;;8.57;3.80;;;;;;;16.41;72.71;100119.00;126180;1099;104265;-77
2021/05/29 03:28:42;;;;;;;6.13;3.83;;;;;;;16.41;72.89;100126.03;126288;1099;104185;-77
2021/05/29 03:31:11;;;;;;;11.47;4.00;;;;;;;16.45;72.75;100127.84;126303;1099;104191;-77
2021/05/29 03:33:40;;;;;;;10.03;4.33;;;;;;;16.46;72.43;100122.55;126279;1099;104315;-77
2021/05/29 03:36:09;;;;;;;9.57;4.40;;;;;;;16.49;72.83;100119.92;126204;1099;104341;-77
2021/05/29 03:38:41;;;;;;;8.93;4.13;;;;;;;16.51;72.37;100115.50;126295;1098;104178;-77
2021/05/29 03:41:13;;;;;;;12.97;3.87;;;;;;;16.56;72.16;100122.59;126228;1099;104274;-76
2021/05/29 03:43:42;;;;;;;9.25;4.30;;;;;;;16.57;72.49;100127.03;126293;1099;104258;-77
2021/05/29 03:46:12;;;;;;;9.90;4.20;;;;;;;16.56;72.71;100125.25;126236;1099;104175;-77
2021/05/29 03:48:41;;;;;;;8.90;4.00;;;;;;;16.57;72.39;100116.44;126255;1098;101950;-77
2021/05/29 03:51:10;;;;;;;9.35;4.50;;;;;;;16.55;72.16;100113.78;126245;1099;104239;-77
2021/05/29 03:53:40;;;;;;;9.90;4.43;;;;;;;16.50;72.53;100121.70;126315;1099;104245;-77
2021/05/29 03:56:09;;;;;;;7.10;4.40;;;;;;;16.46;72.16;100116.38;126263;1099;105118;-76
2021/05/29 03:58:39;;;;;;;7.87;4.20;;;;;;;16.44;71.80;100120.76;126294;1098;104201;-77
2021/05/29 04:01:08;;;;;;;11.50;4.67;;;;;;;16.42;72.44;100131.34;126275;1099;104191;-77
2021/05/29 04:03:37;;;;;;;17.03;4.73;;;;;;;16.43;72.01;100133.13;126315;1099;104210;-77
2021/05/29 04:06:06;;;;;;;6.93;4.17;;;;;;;16.39;72.45;100128.67;126129;1099;104133;-77
2021/05/29 04:08:36;;;;;;;8.03;3.93;;;;;;;16.43;71.96;100142.84;126260;1099;104133;-77
2021/05/29 04:11:05;;;;;;;10.27;4.20;;;;;;;16.44;72.68;100132.26;126331;1099;104191;-76
2021/05/29 04:13:34;;;;;;;8.10;4.10;;;;;;;16.43;71.66;100125.18;126234;1099;104158;-78
2021/05/29 04:16:03;;;;;;;10.40;4.40;;;;;;;16.42;72.04;100139.28;126157;1099;104137;-77
2021/05/29 04:18:32;;;;;;;10.80;3.93;;;;;;;16.42;72.36;100133.98;126313;1099;104143;-77
2021/05/29 04:21:01;;;;;;;11.10;4.70;;;;;;;16.38;72.31;100137.52;126159;1099;104303;-77
2021/05/29 04:23:31;;;;;;;6.53;4.10;;;;;;;16.37;71.75;100146.33;126249;1098;104235;-77
2021/05/29 04:26:00;;;;;;;9.30;4.60;;;;;;;16.35;72.05;100141.02;126275;1099;104185;-77
2021/05/29 04:28:29;;;;;;;7.83;4.47;;;;;;;16.36;71.86;100141.89;126352;1099;104291;-77
2021/05/29 04:30:58;;;;;;;9.20;4.20;;;;;;;16.38;71.63;100150.75;126287;1099;104188;-76
2021/05/29 04:33:27;;;;;;;9.50;4.27;;;;;;;16.41;71.54;100153.42;126307;1099;104143;-77
2021/05/29 04:35:57;;;;;;;8.17;4.50;;;;;;;16.41;71.93;100157.81;126090;1099;104249;-77
2021/05/29 04:38:27;;;;;;;8.03;4.70;;;;;;;16.42;71.82;100152.52;126244;1098;105282;-77
2021/05/29 04:40:56;;;;;;;9.87;4.37;;;;;;;16.44;71.81;100157.83;126291;1098;104158;-78
2021/05/29 04:43:25;;;;;;;12.53;4.27;;;;;;;16.44;71.95;100160.48;126319;1099;104309;-77
2021/05/29 04:45:54;;;;;;;11.80;4.57;;;;;;;16.48;72.04;100159.63;126245;1099;104162;-77
2021/05/29 04:48:25;;;;;;;12.73;4.33;;;;;;;16.50;72.07;100166.72;126287;1099;104244;-77
2021/05/29 04:53:38;;;;;;;8.68;4.40;;;;;;;16.46;71.47;100177.28;126272;1099;104140;-78
2021/05/29 04:56:07;;;;;;;6.47;3.87;;;;;;;16.46;71.69;100167.56;126214;1099;104236;-77
2021/05/29 04:58:38;;;;;;;13.40;5.20;;;;;;;16.49;71.72;100172.01;126286;1099;104242;-78
2021/05/29 05:01:08;;;;;;;11.07;4.40;;;;;;;16.57;71.59;100178.23;126325;1098;104159;-77
2021/05/29 05:03:37;;;;;;;7.70;3.95;;;;;;;16.66;71.70;100165.04;126311;1099;104310;-78
2021/05/29 05:06:08;;;;;;;9.50;4.23;;;;;;;16.73;71.03;100171.25;126242;1099;104146;-76
2021/05/29 05:08:37;;;;;;;8.80;4.20;;;;;;;16.78;71.26;100169.53;126298;1099;104168;-76
2021/05/29 05:11:06;;;;;;;9.10;3.80;;;;;;;16.84;70.83;100173.95;125303;1099;104242;-77
2021/05/29 05:13:35;;;;;;;7.43;3.77;;;;;;;16.96;71.14;100165.22;126292;1099;104258;-77
2021/05/29 05:16:04;;;;;;;11.60;4.20;;;;;;;17.07;70.95;100171.44;126215;1099;104329;-77
2021/05/29 05:18:34;;;;;;;8.03;3.90;;;;;;;17.11;70.26;100174.98;126198;1099;104140;-77
2021/05/29 05:21:03;;;;;;;9.40;3.73;;;;;;;17.12;70.93;100174.11;126224;1099;104166;-77
2021/05/29 05:23:33;;;;;;;8.23;3.80;;;;;;;17.20;70.67;100170.62;126299;1099;104235;-77
2021/05/29 05:26:03;;;;;;;8.97;4.00;;;;;;;17.27;70.36;100171.52;126181;1099;105281;-77
2021/05/29 05:28:32;;;;;;;5.17;3.53;;;;;;;17.34;70.50;100175.97;126174;1099;104313;-77
2021/05/29 05:31:05;;;;;;;9.73;3.93;;;;;;;17.32;70.32;100167.09;126288;1099;104239;-77
2021/05/29 05:33:39;;;;;;;7.60;3.93;;;;;;;17.31;70.03;100175.05;126318;1099;104140;-78
2021/05/29 05:36:09;;;;;;;5.20;3.40;;;;;;;17.35;70.05;100176.84;126308;1099;104172;-76
2021/05/29 05:38:39;;;;;;;8.37;3.87;;;;;;;17.32;69.64;100175.05;126161;1099;104185;-76
2021/05/29 05:41:09;;;;;;;10.20;4.13;;;;;;;17.33;69.85;100173.31;126271;1099;104310;-77
2021/05/29 05:43:38;;;;;;;8.07;3.70;;;;;;;17.35;69.57;100171.54;126283;1099;104149;-77
2021/05/29 05:46:10;;;;;;;9.90;3.50;;;;;;;17.24;69.01;100172.37;126322;1099;104185;-77
2021/05/29 05:48:39;;;;;;;6.57;3.63;;;;;;;17.17;69.47;100186.52;126250;1097;104149;-77
2021/05/29 05:51:09;;;;;;;8.17;3.67;;;;;;;17.17;68.92;100185.61;126196;1098;104245;-77
2021/05/29 05:53:38;;;;;;;8.87;3.90;;;;;;;17.18;69.77;100184.73;126249;1098;104169;-78
2021/05/29 05:56:08;;;;;;;6.93;3.47;;;;;;;17.21;69.09;100182.10;126196;1098;104233;-78
2021/05/29 05:58:39;;;;;;;7.63;3.80;;;;;;;17.28;69.56;100177.70;126161;1099;105303;-76
2021/05/29 06:01:08;;;;;;;12.80;4.27;;;;;;;17.42;69.30;100184.82;126062;1099;104239;-76
2021/05/29 06:03:37;;;;;;;9.47;3.73;;;;;;;17.56;69.16;100175.98;126053;1099;104604;-76
2021/05/29 06:06:07;;;;;;;5.60;3.67;;;;;;;17.67;68.79;100183.97;126047;1098;104242;-76
2021/05/29 06:08:37;;;;;;;8.23;3.60;;;;;;;17.68;68.54;100180.45;126046;1099;104203;-76
2021/05/29 06:11:06;;;;;;;11.97;3.67;;;;;;;17.72;68.48;100192.84;126067;1098;104191;-76
2021/05/29 06:21:43;;;;;;;11.13;4.13;;;;;;;17.82;67.84;100178.69;126311;1099;104140;-77
2021/05/29 06:24:14;;;;;;;6.30;3.60;;;;;;;17.84;67.95;100181.34;126294;1099;104162;-77
2021/05/29 06:26:44;;;;;;;9.13;3.80;;;;;;;17.91;67.79;100183.16;126339;1098;104120;-77
2021/05/29 06:29:13;;;;;;;7.57;3.50;;;;;;;17.99;67.87;100176.08;126228;1099;104165;-77
2021/05/29 06:31:42;;;;;;;7.73;3.83;;;;;;;18.06;67.33;100184.92;126262;1099;104296;-76
2021/05/29 06:34:11;;;;;;;6.03;3.60;;;;;;;18.07;67.31;100176.08;126298;1099;104134;-77
2021/05/29 06:36:40;;;;;;;7.17;3.57;;;;;;;18.18;67.20;100181.39;126286;1099;104134;-77
2021/05/29 06:39:10;;;;;;;8.93;4.10;;;;;;;18.33;67.71;100174.28;126095;1099;104444;-77
2021/05/29 06:41:41;;;;;;;5.67;3.40;;;;;;;18.41;67.47;100168.96;126282;1099;104243;-77
2021/05/29 06:44:12;;;;;;;5.40;3.33;;;;;;;18.43;67.13;100184.90;126215;1099;104220;-77
2021/05/29 06:46:43;;;;;;;6.87;3.67;;;;;;;18.33;67.33;100176.06;126173;1099;104159;-77
2021/05/29 06:49:14;;;;;;;4.13;3.30;;;;;;;18.33;66.74;100161.00;126077;1099;104140;-77
2021/05/29 06:51:50;;;;;;;9.17;4.07;;;;;;;18.30;67.15;100174.28;126313;1099;104226;-77
2021/05/29 06:54:24;;;;;;;7.80;3.50;;;;;;;18.33;66.43;100182.25;126300;1099;104175;-77
2021/05/29 06:59:36;;;;;;;6.43;3.40;;;;;;;18.66;66.54;100167.13;126240;1099;104300;-76
2021/05/29 07:02:05;;;;;;;7.97;3.80;;;;;;;18.84;66.16;100167.98;126296;1099;104662;-78
2021/05/29 07:04:34;;;;;;;5.07;3.10;;;;;;;18.95;65.54;100170.64;126304;1099;104569;-77
2021/05/29 07:07:04;;;;;;;4.73;3.27;;;;;;;18.92;66.00;100165.33;126258;1099;104220;-77
2021/05/29 07:09:33;;;;;;;7.83;3.87;;;;;;;18.95;65.17;100166.20;126219;1099;104296;-77
2021/05/29 07:12:03;;;;;;;6.63;3.80;;;;;;;19.07;65.68;100165.23;126266;1099;104277;-77
2021/05/29 07:14:32;;;;;;;7.60;3.50;;;;;;;19.17;65.33;100161.66;126274;1099;104236;-77
2021/05/29 07:17:04;;;;;;;5.93;3.70;;;;;;;19.21;64.70;100162.52;126239;1099;104259;-76
2021/05/29 07:19:33;;;;;;;6.20;3.83;;;;;;;19.26;65.47;100165.16;126227;1099;104182;-77
2021/05/29 07:22:02;;;;;;;8.27;4.17;;;;;;;19.36;64.54;100167.76;126277;1099;104146;-77
2021/05/29 07:24:33;;;;;;;7.43;4.40;;;;;;;19.56;64.90;100161.44;126321;1099;104143;-77
2021/05/29 07:27:03;;;;;;;6.73;4.10;;;;;;;19.75;63.93;100156.87;126291;1099;104175;-77
2021/05/29 07:29:32;;;;;;;9.93;4.30;;;;;;;19.81;64.45;100150.66;126280;1099;104226;-77
2021/05/29 07:32:01;;;;;;;7.33;4.27;;;;;;;20.02;64.73;100161.11;126282;1099;104260;-77
2021/05/29 07:34:30;;;;;;;5.63;3.70;;;;;;;20.27;64.18;100155.56;126234;1099;104310;-77
2021/05/29 07:36:59;;;;;;;5.43;3.80;;;;;;;20.47;64.03;100172.27;126316;1099;104140;-77
2021/05/29 07:39:28;;;;;;;9.33;4.30;;;;;;;20.48;63.48;100155.35;126207;1099;104155;-78
2021/05/29 07:41:57;;;;;;;6.57;4.27;;;;;;;20.56;63.52;100157.06;126322;1099;104139;-77
2021/05/29 07:44:27;;;;;;;6.57;4.03;;;;;;;20.61;63.26;100168.55;126197;1099;104172;-76
2021/05/29 07:46:56;;;;;;;6.03;4.23;;;;;;;20.45;62.47;100167.83;126225;1099;102793;-76
2021/05/29 07:49:25;;;;;;;8.53;4.30;;;;;;;20.45;62.37;100160.71;126210;1099;104146;-77
2021/05/29 07:51:54;;;;;;;6.67;4.27;;;;;;;20.57;62.63;100150.81;126304;1099;103999;-77
2021/05/29 07:54:23;;;;;;;9.60;4.73;;;;;;;20.83;62.35;100164.79;126294;1099;104175;-77
2021/05/29 07:56:53;;;;;;;7.50;4.27;;;;;;;20.98;62.70;100162.83;126234;1099;104412;-77
2021/05/29 07:59:22;;;;;;;12.10;4.25;;;;;;;20.95;61.92;100157.53;126214;1099;104172;-77
2021/05/29 08:01:51;;;;;;;8.55;4.35;;;;;;;20.94;60.22;100161.09;126216;1099;104181;-77
2021/05/29 08:04:20;;;;;;;6.20;4.40;;;;;;;20.83;61.55;100151.45;125245;1099;104300;-77
2021/05/29 08:06:50;;;;;;;8.47;4.20;;;;;;;20.82;60.92;100157.67;125223;1101;104307;-77
2021/05/29 08:09:19;;;;;;;6.47;4.20;;;;;;;20.90;61.52;100135.38;125207;1099;104277;-76
2021/05/29 08:11:48;;;;;;;9.33;4.70;;;;;;;20.97;61.53;100137.05;125169;1099;104300;-76
2021/05/29 08:14:18;;;;;;;8.13;4.33;;;;;;;21.23;61.25;100128.70;125216;1099;104142;-77
2021/05/29 08:16:47;;;;;;;6.10;4.27;;;;;;;21.57;61.15;100130.04;125284;1099;104137;-77
2021/05/29 08:19:16;;;;;;;8.00;4.30;;;;;;;21.77;60.63;100133.27;125220;1099;104162;-76
2021/05/29 08:21:49;;;;;;;8.20;4.70;;;;;;;21.62;60.48;100136.18;125240;1099;104564;-77
2021/05/29 08:24:19;;;;;;;5.07;4.00;;;;;;;21.50;59.51;100132.80;125166;1099;104303;-76
2021/05/29 08:26:48;;;;;;;6.70;4.43;;;;;;;21.44;60.10;100135.53;125228;1099;104149;-77
2021/05/29 08:29:17;;;;;;;10.17;4.33;;;;;;;21.46;60.73;100125.70;125276;1099;105207;-77
2021/05/29 08:31:46;;;;;;;10.10;4.50;;;;;;;21.68;60.44;100128.95;125190;1099;104134;-77
2021/05/29 08:34:16;;;;;;;8.03;4.40;;;;;;;21.83;59.50;100126.92;125193;1099;104156;-77
2021/05/29 08:36:45;;;;;;;6.10;3.83;;;;;;;21.95;58.85;100121.38;126074;1099;104136;-76
2021/05/29 08:39:14;;;;;;;6.47;4.20;;;;;;;22.18;58.70;100125.45;126309;1099;104156;-76
2021/05/29 08:41:44;;;;;;;6.13;3.70;;;;;;;22.35;58.49;100131.39;126239;1099;104160;-77
2021/05/29 08:44:13;;;;;;;6.73;4.00;;;;;;;22.29;59.19;100130.61;126158;1099;104146;-77
2021/05/29 08:46:42;;;;;;;9.00;4.23;;;;;;;22.31;59.54;100132.35;126238;1099;104345;-77
2021/05/29 08:49:12;;;;;;;7.67;4.00;;;;;;;22.38;59.14;100135.81;126254;1099;104137;-78
2021/05/29 08:51:41;;;;;;;6.63;3.80;;;;;;;22.46;57.64;100141.89;126248;1099;104294;-75
2021/05/29 08:54:10;;;;;;;6.27;3.63;;;;;;;22.63;58.77;100138.02;126280;1099;104162;-77
2021/05/29 08:56:39;;;;;;;7.07;3.73;;;;;;;22.93;58.64;100147.20;126231;1099;104197;-78
2021/05/29 08:59:08;;;;;;;6.77;3.30;;;;;;;22.93;58.27;100141.84;126223;1099;104217;-76
2021/05/29 09:01:37;;;;;;;7.20;3.50;;;;;;;22.74;57.74;100155.59;126111;1098;104296;-77
2021/05/29 09:04:08;;;;;;;6.47;3.47;;;;;;;22.71;58.01;100149.44;125193;1099;104198;-77
2021/05/29 09:06:44;;;;;;;4.73;3.33;;;;;;;22.83;57.69;100143.84;125312;1099;104149;-77
2021/05/29 09:09:15;;;;;;;5.27;3.20;;;;;;;22.89;56.99;100142.81;125306;1099;104313;-76
2021/05/29 09:11:48;;;;;;;5.40;3.50;;;;;;;22.87;56.52;100141.97;125156;1100;104204;-76
2021/05/29 09:14:34;;;;;;;7.92;3.45;;;;;;;22.84;57.18;100144.71;125209;1099;104149;-77
2021/05/29 09:17:17;;;;;;;5.50;3.30;;;;;;;22.75;57.20;100144.00;125252;1099;104390;-77
2021/05/29 09:20:04;;;;;;;9.85;3.33;;;;;;;22.66;57.04;100145.95;125271;1099;104178;-76
2021/05/29 09:22:37;;;;;;;4.60;3.07;;;;;;;22.63;56.45;100146.91;125198;1099;104297;-77
2021/05/29 09:25:13;;;;;;;5.33;3.00;;;;;;;22.60;56.08;100139.82;125195;1099;104322;-77
2021/05/29 09:27:55;;;;;;;6.10;3.00;;;;;;;22.66;55.48;100141.50;125187;1102;104643;-77
2021/05/29 09:30:40;;;;;;;3.67;2.80;;;;;;;22.63;55.38;100146.05;125258;1099;104222;-78
2021/05/29 09:33:15;;;;;;;2.97;2.60;;;;;;;22.64;56.06;100147.78;125150;1099;104226;-76
2021/05/29 09:35:49;;;;;;;5.53;2.97;;;;;;;22.68;55.43;100145.02;125953;1099;102127;-76
2021/05/29 09:38:20;;;;;;;;;;;;;;;22.55;54.43;100132.83;125327;1099;104274;-76
2021/05/29 09:40:53;;;;;;;3.85;2.90;;;;;;;22.44;54.60;100135.70;126189;1099;104184;-78
2021/05/29 09:43:25;;;;;;;5.40;3.07;;;;;;;22.63;54.42;100149.59;126251;1099;104249;-75
2021/05/29 09:46:07;;;;;;;5.40;3.00;;;;;;;22.69;54.50;100137.87;126280;1099;104255;-76
2021/05/29 09:48:36;;;;;;;4.23;2.97;;;;;;;22.67;54.98;100161.96;126196;1098;104184;-77
2021/05/29 09:51:08;;;;;;;4.90;3.13;;;;;;;22.49;54.78;100135.61;126183;1099;104209;-76
2021/05/29 09:53:43;;;;;;;3.50;2.90;;;;;;;22.47;54.41;100140.08;126207;1099;104146;-77
2021/05/29 09:56:27;;;;;;;4.33;2.80;;;;;;;22.55;54.32;100143.52;125272;1099;104204;-77
2021/05/29 09:59:00;;;;;;;4.30;3.20;;;;;;;22.73;54.29;100144.93;125234;1102;104428;-77
2021/05/29 10:01:43;;;;;;;4.27;2.80;;;;;;;22.86;53.92;100137.53;125235;1102;104252;-78
2021/05/29 10:04:16;;;;;;;8.83;3.05;;;;;;;22.85;53.82;100150.03;125275;1102;118987;-76
2021/05/29 10:06:56;;;;;;;4.17;2.80;;;;;;;22.73;54.03;100148.47;125235;1102;104155;-77
2021/05/29 10:09:26;;;;;;;4.10;3.03;;;;;;;22.75;53.58;100143.09;125249;1102;104162;-77
2021/05/29 10:11:56;;;;;;;5.07;3.00;;;;;;;22.79;54.10;100150.16;125186;1102;104187;-74
2021/05/29 10:14:27;;;;;;;6.10;2.80;;;;;;;22.76;53.73;100152.89;125126;1102;106524;-76
2021/05/29 10:16:57;;;;;;;3.93;3.00;;;;;;;22.64;53.21;100166.50;125290;1102;104509;-76
2021/05/29 10:19:29;;;;;;;3.67;2.80;;;;;;;22.69;53.79;100153.91;125216;1102;104369;-76
2021/05/29 10:22:03;;;;;;;4.63;3.03;;;;;;;22.76;53.50;100147.55;125227;1102;104175;-77
2021/05/29 10:24:33;;;;;;;5.90;2.73;;;;;;;22.74;53.26;100150.25;125201;1102;104147;-76
2021/05/29 10:27:07;;;;;;;4.03;2.80;;;;;;;22.78;53.09;100151.05;125380;1101;105646;-77
2021/05/29 10:29:37;;;;;;;4.37;3.10;;;;;;;22.86;53.51;100153.58;125334;1099;104243;-77
2021/05/29 10:32:18;;;;;;;3.10;2.60;;;;;;;23.00;53.56;100147.94;126231;1099;104149;-76
2021/05/29 10:35:05;;;;;;;7.07;3.10;;;;;;;22.80;53.20;100154.61;126230;1098;105325;-76
2021/05/29 10:37:37;;;;;;;6.80;3.47;;;;;;;22.76;53.78;100152.89;126286;1099;105182;-77
2021/05/29 10:40:20;;;;;;;3.97;3.00;;;;;;;22.76;52.35;100153.77;126270;1099;104201;-77
2021/05/29 10:43:09;;;;;;;2.80;2.60;;;;;;;22.85;52.82;100138.46;126201;1099;104232;-76
2021/05/29 10:45:41;;;;;;;3.07;2.70;;;;;;;22.94;52.74;100143.62;126263;1099;104193;-77
2021/05/29 10:48:13;;;;;;;5.07;2.97;;;;;;;22.91;52.17;100149.04;126297;1099;104172;-77
2021/05/29 10:51:00;;;;;;;6.33;2.67;;;;;;;22.88;52.89;100141.94;126352;1098;104140;-76
2021/05/29 10:53:50;;;;;;;5.97;2.80;;;;;;;22.98;52.56;100137.27;126168;1099;104210;-77
2021/05/29 10:56:32;;;;;;;3.70;2.43;;;;;;;23.07;52.25;100144.23;126273;1099;104254;-79
2021/05/29 10:59:09;;;;;;;5.50;2.70;;;;;;;23.02;51.95;100138.98;126271;1098;104207;-77
2021/05/29 11:02:07;;;;;;;3.23;2.70;;;;;;;22.97;52.44;100136.41;126282;1099;104191;-78
2021/05/29 11:04:37;;;;;;;5.40;2.80;;;;;;;23.04;52.28;100141.63;126215;1099;104172;-76
2021/05/29 11:07:24;;;;;;;2.90;2.60;;;;;;;23.02;52.21;100138.11;126303;1099;104252;-77
2021/05/29 11:09:56;;;;;;;3.50;2.90;;;;;;;22.98;51.71;100132.83;126210;1099;104198;-78
2021/05/29 11:12:51;;;;;;;4.37;3.00;;;;;;;22.98;51.91;100140.84;126058;1099;105636;-75
2021/05/29 11:15:50;;;;;;;6.10;3.00;;;;;;;22.95;51.26;100130.22;126095;1099;104242;-75
2021/05/29 11:18:19;;;;;;;4.97;3.10;;;;;;;23.03;51.73;100137.17;125451;1099;104194;-75
2021/05/29 11:21:10;;;;;;;3.40;2.63;;;;;;;23.14;51.38;100137.88;126110;1099;104211;-75
2021/05/29 11:23:39;;;;;;;6.83;2.90;;;;;;;23.33;51.06;100133.86;126135;1099;104201;-77
2021/05/29 11:26:09;;;;;;;6.67;2.80;;;;;;;23.34;51.26;100129.38;126260;1099;104585;-76
2021/05/29 11:28:41;;;;;;;6.93;2.80;;;;;;;23.32;51.03;100132.09;126249;1099;104137;-76
2021/05/29 11:31:10;;;;;;;4.87;2.63;;;;;;;23.24;51.28;100133.20;126280;1099;104246;-77
2021/05/29 11:33:52;;;;;;;6.23;3.03;;;;;;;23.23;50.82;100126.94;126254;1099;104162;-76
2021/05/29 11:36:30;;;;;;;3.40;2.80;;;;;;;23.12;50.71;100126.31;126178;1099;118939;-77
2021/05/29 11:39:12;;;;;;;5.53;2.90;;;;;;;23.02;50.67;100124.73;126290;1099;104589;-76
2021/05/29 11:41:43;;;;;;;4.93;2.60;;;;;;;22.99;50.40;100131.02;126234;1099;104210;-77